Terminal Aerodrome Forecast
Issued by NWS

Home | Current Version | Previous Version | Text Only | Print | Product List | Glossary On
Versions: 1 2 3 4 5 6 7 8 9 10 11 12 13 14 15 16 17 18 19 20 21 22 23
000
FTUS43 KIND 192018 AAA
TAFBMG
TAF AMD
KBMG 192018Z 1920/2018 23005KT P6SM SCT250
     FM200400 00000KT P6SM SCT015
     FM200600 VRB03KT 3/4SM BR SCT008
     FM201200 VRB03KT P6SM BKN003
     FM201600 14006KT P6SM SCT050
     FM201700 15006KT P6SM SCT090=

USA.gov is the U.S. government's official web portal to all federal, state and local government web resources and services.